sensor_id;sensor_type;location;lat;lon;timestamp;P1;durP1;ratioP1;P2;durP2;ratioP2
30462;SDS011;17256;43.618;25.336;2023-04-10T00:01:00;20.70;;;17.50;;
30462;SDS011;17256;43.618;25.336;2023-04-10T00:03:26;19.77;;;17.40;;
30462;SDS011;17256;43.618;25.336;2023-04-10T00:05:53;26.07;;;18.37;;
30462;SDS011;17256;43.618;25.336;2023-04-10T00:08:24;22.37;;;18.07;;
30462;SDS011;17256;43.618;25.336;2023-04-10T01:18:41;24.27;;;20.40;;
30462;SDS011;17256;43.618;25.336;2023-04-10T01:21:16;25.60;;;20.33;;
30462;SDS011;17256;43.618;25.336;2023-04-10T01:29:38;23.97;;;18.97;;
30462;SDS011;17256;43.618;25.336;2023-04-10T01:32:16;22.43;;;18.90;;
30462;SDS011;17256;43.618;25.336;2023-04-10T01:34:45;22.67;;;19.23;;
30462;SDS011;17256;43.618;25.336;2023-04-10T01:37:24;22.33;;;20.03;;
30462;SDS011;17256;43.618;25.336;2023-04-10T01:40:03;22.63;;;18.93;;
30462;SDS011;17256;43.618;25.336;2023-04-10T01:42:35;22.93;;;19.90;;
30462;SDS011;17256;43.618;25.336;2023-04-10T01:45:14;22.67;;;18.87;;
30462;SDS011;17256;43.618;25.336;2023-04-10T01:47:53;22.73;;;19.83;;
30462;SDS011;17256;43.618;25.336;2023-04-10T01:51:04;23.87;;;20.33;;
30462;SDS011;17256;43.618;25.336;2023-04-10T01:54:32;23.53;;;20.50;;
30462;SDS011;17256;43.618;25.336;2023-04-10T01:57:25;23.87;;;19.60;;
30462;SDS011;17256;43.618;25.336;2023-04-10T02:51:03;31.27;;;25.63;;
30462;SDS011;17256;43.618;25.336;2023-04-10T02:53:31;31.47;;;25.20;;
30462;SDS011;17256;43.618;25.336;2023-04-10T02:55:59;30.30;;;22.70;;
30462;SDS011;17256;43.618;25.336;2023-04-10T02:58:27;29.47;;;22.67;;
30462;SDS011;17256;43.618;25.336;2023-04-10T03:00:57;28.53;;;24.43;;
30462;SDS011;17256;43.618;25.336;2023-04-10T03:03:41;29.00;;;24.87;;
30462;SDS011;17256;43.618;25.336;2023-04-10T03:06:10;29.83;;;25.30;;
30462;SDS011;17256;43.618;25.336;2023-04-10T03:08:44;31.53;;;25.70;;
30462;SDS011;17256;43.618;25.336;2023-04-10T03:11:44;29.77;;;25.47;;
30462;SDS011;17256;43.618;25.336;2023-04-10T03:14:11;27.97;;;23.67;;
30462;SDS011;17256;43.618;25.336;2023-04-10T03:17:03;30.53;;;25.33;;
30462;SDS011;17256;43.618;25.336;2023-04-10T03:19:35;29.80;;;24.77;;
30462;SDS011;17256;43.618;25.336;2023-04-10T03:22:11;26.17;;;23.10;;
30462;SDS011;17256;43.618;25.336;2023-04-10T03:24:40;28.77;;;24.37;;
30462;SDS011;17256;43.618;25.336;2023-04-10T03:27:08;27.80;;;23.40;;
30462;SDS011;17256;43.618;25.336;2023-04-10T03:29:38;28.10;;;25.10;;
30462;SDS011;17256;43.618;25.336;2023-04-10T03:46:14;31.20;;;25.77;;
30462;SDS011;17256;43.618;25.336;2023-04-10T03:48:48;27.93;;;24.43;;
30462;SDS011;17256;43.618;25.336;2023-04-10T03:51:18;30.03;;;24.60;;
30462;SDS011;17256;43.618;25.336;2023-04-10T03:53:46;29.00;;;24.60;;
30462;SDS011;17256;43.618;25.336;2023-04-10T03:56:17;28.10;;;23.77;;
30462;SDS011;17256;43.618;25.336;2023-04-10T03:58:45;30.40;;;25.30;;
30462;SDS011;17256;43.618;25.336;2023-04-10T04:01:12;30.43;;;24.77;;
30462;SDS011;17256;43.618;25.336;2023-04-10T04:11:10;29.77;;;24.13;;
30462;SDS011;17256;43.618;25.336;2023-04-10T04:14:10;29.50;;;25.50;;
30462;SDS011;17256;43.618;25.336;2023-04-10T04:17:07;30.47;;;24.17;;
30462;SDS011;17256;43.618;25.336;2023-04-10T04:20:06;27.67;;;24.67;;
30462;SDS011;17256;43.618;25.336;2023-04-10T04:22:44;30.27;;;25.03;;
30462;SDS011;17256;43.618;25.336;2023-04-10T04:25:46;30.40;;;24.90;;
30462;SDS011;17256;43.618;25.336;2023-04-10T04:28:35;28.93;;;24.90;;
30462;SDS011;17256;43.618;25.336;2023-04-10T04:31:36;31.60;;;24.70;;
30462;SDS011;17256;43.618;25.336;2023-04-10T04:34:28;31.63;;;24.47;;
30462;SDS011;17256;43.618;25.336;2023-04-10T04:40:07;29.13;;;24.97;;
30462;SDS011;17256;43.618;25.336;2023-04-10T04:42:58;31.10;;;23.33;;
30462;SDS011;17256;43.618;25.336;2023-04-10T04:45:41;25.13;;;22.47;;
30462;SDS011;17256;43.618;25.336;2023-04-10T04:48:37;26.40;;;23.30;;
30462;SDS011;17256;43.618;25.336;2023-04-10T04:51:20;30.57;;;23.80;;
30462;SDS011;17256;43.618;25.336;2023-04-10T04:54:15;26.73;;;23.07;;
30462;SDS011;17256;43.618;25.336;2023-04-10T05:32:25;36.57;;;32.53;;
30462;SDS011;17256;43.618;25.336;2023-04-10T05:35:09;26.87;;;24.07;;
30462;SDS011;17256;43.618;25.336;2023-04-10T05:37:44;31.87;;;27.97;;
30462;SDS011;17256;43.618;25.336;2023-04-10T05:40:36;29.33;;;26.17;;
30462;SDS011;17256;43.618;25.336;2023-04-10T05:43:22;25.73;;;22.30;;
30462;SDS011;17256;43.618;25.336;2023-04-10T05:46:01;27.97;;;23.93;;
30462;SDS011;17256;43.618;25.336;2023-04-10T05:48:56;28.23;;;23.67;;
30462;SDS011;17256;43.618;25.336;2023-04-10T05:51:55;27.37;;;23.10;;
30462;SDS011;17256;43.618;25.336;2023-04-10T05:54:40;28.33;;;22.87;;
30462;SDS011;17256;43.618;25.336;2023-04-10T05:57:28;27.33;;;24.33;;
30462;SDS011;17256;43.618;25.336;2023-04-10T06:00:13;30.60;;;25.20;;
30462;SDS011;17256;43.618;25.336;2023-04-10T06:03:00;25.17;;;22.47;;
30462;SDS011;17256;43.618;25.336;2023-04-10T06:05:28;30.30;;;24.33;;
30462;SDS011;17256;43.618;25.336;2023-04-10T06:07:59;28.17;;;23.67;;
30462;SDS011;17256;43.618;25.336;2023-04-10T06:10:27;28.30;;;24.33;;
30462;SDS011;17256;43.618;25.336;2023-04-10T06:12:54;25.60;;;22.70;;
30462;SDS011;17256;43.618;25.336;2023-04-10T06:49:15;30.30;;;25.40;;
30462;SDS011;17256;43.618;25.336;2023-04-10T06:51:41;27.00;;;24.17;;
30462;SDS011;17256;43.618;25.336;2023-04-10T06:54:07;26.57;;;23.67;;
30462;SDS011;17256;43.618;25.336;2023-04-10T06:56:33;26.80;;;23.90;;
30462;SDS011;17256;43.618;25.336;2023-04-10T06:58:58;27.20;;;24.30;;
30462;SDS011;17256;43.618;25.336;2023-04-10T07:01:24;26.50;;;23.63;;
30462;SDS011;17256;43.618;25.336;2023-04-10T07:03:50;27.57;;;24.40;;
30462;SDS011;17256;43.618;25.336;2023-04-10T07:06:16;27.77;;;24.80;;
30462;SDS011;17256;43.618;25.336;2023-04-10T07:08:42;28.63;;;24.73;;
30462;SDS011;17256;43.618;25.336;2023-04-10T07:11:08;25.33;;;22.63;;
30462;SDS011;17256;43.618;25.336;2023-04-10T07:13:33;25.57;;;22.87;;
30462;SDS011;17256;43.618;25.336;2023-04-10T07:15:59;26.30;;;23.50;;
30462;SDS011;17256;43.618;25.336;2023-04-10T07:18:25;28.47;;;25.37;;
30462;SDS011;17256;43.618;25.336;2023-04-10T07:20:51;31.90;;;26.90;;
30462;SDS011;17256;43.618;25.336;2023-04-10T07:23:18;36.73;;;30.53;;
30462;SDS011;17256;43.618;25.336;2023-04-10T07:25:45;28.53;;;25.53;;
30462;SDS011;17256;43.618;25.336;2023-04-10T07:31:09;29.17;;;26.17;;
30462;SDS011;17256;43.618;25.336;2023-04-10T07:34:05;27.73;;;24.73;;
30462;SDS011;17256;43.618;25.336;2023-04-10T07:36:45;28.43;;;23.60;;
30462;SDS011;17256;43.618;25.336;2023-04-10T07:39:24;29.53;;;26.23;;
30462;SDS011;17256;43.618;25.336;2023-04-10T07:42:15;28.00;;;24.83;;
30462;SDS011;17256;43.618;25.336;2023-04-10T07:45:26;27.60;;;24.80;;
30462;SDS011;17256;43.618;25.336;2023-04-10T07:48:14;25.17;;;22.67;;
30462;SDS011;17256;43.618;25.336;2023-04-10T07:50:41;26.37;;;23.47;;
30462;SDS011;17256;43.618;25.336;2023-04-10T07:53:19;26.10;;;23.37;;
30462;SDS011;17256;43.618;25.336;2023-04-10T08:03:42;22.97;;;20.57;;
30462;SDS011;17256;43.618;25.336;2023-04-10T08:06:15;23.17;;;20.77;;
30462;SDS011;17256;43.618;25.336;2023-04-10T08:10:15;23.23;;;20.90;;
30462;SDS011;17256;43.618;25.336;2023-04-10T08:16:12;24.77;;;22.33;;
30462;SDS011;17256;43.618;25.336;2023-04-10T08:18:38;26.13;;;23.33;;
30462;SDS011;17256;43.618;25.336;2023-04-10T08:21:03;26.57;;;23.80;;
30462;SDS011;17256;43.618;25.336;2023-04-10T08:23:29;24.13;;;21.73;;
30462;SDS011;17256;43.618;25.336;2023-04-10T08:25:55;25.07;;;22.47;;
30462;SDS011;17256;43.618;25.336;2023-04-10T08:28:22;24.10;;;21.70;;
30462;SDS011;17256;43.618;25.336;2023-04-10T08:30:48;23.70;;;21.13;;
30462;SDS011;17256;43.618;25.336;2023-04-10T08:33:17;26.53;;;23.93;;
30462;SDS011;17256;43.618;25.336;2023-04-10T08:35:45;24.33;;;21.87;;
30462;SDS011;17256;43.618;25.336;2023-04-10T08:38:13;22.83;;;20.57;;
30462;SDS011;17256;43.618;25.336;2023-04-10T08:40:38;25.43;;;22.83;;
30462;SDS011;17256;43.618;25.336;2023-04-10T08:43:04;24.00;;;21.60;;
30462;SDS011;17256;43.618;25.336;2023-04-10T08:45:30;25.77;;;23.00;;
30462;SDS011;17256;43.618;25.336;2023-04-10T08:47:56;25.33;;;22.50;;
30462;SDS011;17256;43.618;25.336;2023-04-10T08:50:26;24.93;;;22.23;;
30462;SDS011;17256;43.618;25.336;2023-04-10T08:52:55;28.00;;;22.63;;
30462;SDS011;17256;43.618;25.336;2023-04-10T08:55:25;23.27;;;20.87;;
30462;SDS011;17256;43.618;25.336;2023-04-10T08:57:52;25.43;;;22.83;;
30462;SDS011;17256;43.618;25.336;2023-04-10T09:00:19;25.03;;;20.87;;
30462;SDS011;17256;43.618;25.336;2023-04-10T09:02:46;28.23;;;22.10;;
30462;SDS011;17256;43.618;25.336;2023-04-10T09:05:12;22.80;;;20.50;;
30462;SDS011;17256;43.618;25.336;2023-04-10T09:07:40;23.47;;;21.17;;
30462;SDS011;17256;43.618;25.336;2023-04-10T09:10:09;23.00;;;20.80;;
30462;SDS011;17256;43.618;25.336;2023-04-10T09:12:45;22.80;;;20.50;;
30462;SDS011;17256;43.618;25.336;2023-04-10T09:15:14;24.30;;;21.53;;
30462;SDS011;17256;43.618;25.336;2023-04-10T09:17:58;23.00;;;20.80;;
30462;SDS011;17256;43.618;25.336;2023-04-10T09:20:27;22.20;;;19.93;;
30462;SDS011;17256;43.618;25.336;2023-04-10T09:22:55;21.17;;;18.93;;
30462;SDS011;17256;43.618;25.336;2023-04-10T09:25:36;22.57;;;19.13;;
30462;SDS011;17256;43.618;25.336;2023-04-10T09:28:06;22.13;;;19.90;;
30462;SDS011;17256;43.618;25.336;2023-04-10T09:30:37;19.90;;;17.53;;
30462;SDS011;17256;43.618;25.336;2023-04-10T09:35:56;20.43;;;18.33;;
30462;SDS011;17256;43.618;25.336;2023-04-10T09:38:25;20.60;;;18.47;;
30462;SDS011;17256;43.618;25.336;2023-04-10T09:40:51;17.37;;;15.57;;
30462;SDS011;17256;43.618;25.336;2023-04-10T09:43:37;19.97;;;17.13;;
30462;SDS011;17256;43.618;25.336;2023-04-10T09:46:06;18.37;;;16.47;;
30462;SDS011;17256;43.618;25.336;2023-04-10T09:48:33;19.13;;;17.27;;
30462;SDS011;17256;43.618;25.336;2023-04-10T09:51:00;18.70;;;16.73;;
30462;SDS011;17256;43.618;25.336;2023-04-10T09:53:46;19.43;;;17.63;;
30462;SDS011;17256;43.618;25.336;2023-04-10T09:58:47;17.60;;;15.80;;
30462;SDS011;17256;43.618;25.336;2023-04-10T10:01:18;18.17;;;15.30;;
30462;SDS011;17256;43.618;25.336;2023-04-10T10:03:49;17.63;;;16.00;;
30462;SDS011;17256;43.618;25.336;2023-04-10T10:06:38;16.30;;;14.77;;
30462;SDS011;17256;43.618;25.336;2023-04-10T10:09:05;18.47;;;16.57;;
30462;SDS011;17256;43.618;25.336;2023-04-10T10:11:33;18.33;;;16.60;;
30462;SDS011;17256;43.618;25.336;2023-04-10T10:14:07;18.73;;;16.90;;
30462;SDS011;17256;43.618;25.336;2023-04-10T10:16:47;17.90;;;16.00;;
30462;SDS011;17256;43.618;25.336;2023-04-10T10:19:17;17.87;;;16.10;;
30462;SDS011;17256;43.618;25.336;2023-04-10T10:21:50;19.17;;;16.07;;
30462;SDS011;17256;43.618;25.336;2023-04-10T10:24:19;16.53;;;13.93;;
30462;SDS011;17256;43.618;25.336;2023-04-10T10:26:48;18.70;;;16.90;;
30462;SDS011;17256;43.618;25.336;2023-04-10T10:29:16;15.73;;;14.23;;
30462;SDS011;17256;43.618;25.336;2023-04-10T10:31:42;15.40;;;13.93;;
30462;SDS011;17256;43.618;25.336;2023-04-10T10:34:11;15.17;;;13.73;;
30462;SDS011;17256;43.618;25.336;2023-04-10T10:36:38;15.63;;;14.13;;
30462;SDS011;17256;43.618;25.336;2023-04-10T10:42:35;13.83;;;12.43;;
30462;SDS011;17256;43.618;25.336;2023-04-10T10:45:10;14.63;;;13.13;;
30462;SDS011;17256;43.618;25.336;2023-04-10T10:47:41;11.87;;;10.77;;
30462;SDS011;17256;43.618;25.336;2023-04-10T10:50:11;13.77;;;12.57;;
30462;SDS011;17256;43.618;25.336;2023-04-10T10:52:38;16.00;;;14.47;;
30462;SDS011;17256;43.618;25.336;2023-04-10T10:55:46;14.10;;;12.90;;
30462;SDS011;17256;43.618;25.336;2023-04-10T10:58:04;14.07;;;12.77;;
30462;SDS011;17256;43.618;25.336;2023-04-10T11:05:54;16.17;;;14.43;;
30462;SDS011;17256;43.618;25.336;2023-04-10T11:11:02;14.30;;;13.10;;
30462;SDS011;17256;43.618;25.336;2023-04-10T11:13:42;13.90;;;12.47;;
30462;SDS011;17256;43.618;25.336;2023-04-10T11:21:26;13.77;;;11.33;;
30462;SDS011;17256;43.618;25.336;2023-04-10T11:29:03;13.83;;;12.53;;
30462;SDS011;17256;43.618;25.336;2023-04-10T11:31:40;12.53;;;11.27;;
30462;SDS011;17256;43.618;25.336;2023-04-10T11:34:08;14.33;;;12.73;;
30462;SDS011;17256;43.618;25.336;2023-04-10T11:36:37;16.87;;;12.80;;
30462;SDS011;17256;43.618;25.336;2023-04-10T11:39:05;13.20;;;10.57;;
30462;SDS011;17256;43.618;25.336;2023-04-10T11:41:33;12.53;;;11.33;;
30462;SDS011;17256;43.618;25.336;2023-04-10T11:44:01;11.53;;;10.13;;
30462;SDS011;17256;43.618;25.336;2023-04-10T11:46:29;10.87;;;9.77;;
30462;SDS011;17256;43.618;25.336;2023-04-10T11:49:02;10.67;;;9.27;;
30462;SDS011;17256;43.618;25.336;2023-04-10T11:51:33;9.93;;;9.03;;
30462;SDS011;17256;43.618;25.336;2023-04-10T12:03:52;12.87;;;11.70;;
30462;SDS011;17256;43.618;25.336;2023-04-10T12:07:13;12.53;;;11.23;;
30462;SDS011;17256;43.618;25.336;2023-04-10T12:09:43;12.53;;;11.37;;
30462;SDS011;17256;43.618;25.336;2023-04-10T12:12:13;13.77;;;12.53;;
30462;SDS011;17256;43.618;25.336;2023-04-10T12:14:49;9.93;;;9.03;;
30462;SDS011;17256;43.618;25.336;2023-04-10T12:17:15;11.53;;;10.20;;
30462;SDS011;17256;43.618;25.336;2023-04-10T12:19:41;10.37;;;9.47;;
30462;SDS011;17256;43.618;25.336;2023-04-10T12:22:07;11.80;;;10.47;;
30462;SDS011;17256;43.618;25.336;2023-04-10T12:24:43;12.80;;;11.63;;
30462;SDS011;17256;43.618;25.336;2023-04-10T12:29:42;11.10;;;10.00;;
30462;SDS011;17256;43.618;25.336;2023-04-10T12:32:08;11.30;;;10.20;;
30462;SDS011;17256;43.618;25.336;2023-04-10T12:34:37;12.10;;;10.43;;
30462;SDS011;17256;43.618;25.336;2023-04-10T12:37:03;12.80;;;11.50;;
30462;SDS011;17256;43.618;25.336;2023-04-10T12:39:29;12.67;;;10.47;;
30462;SDS011;17256;43.618;25.336;2023-04-10T12:42:11;11.70;;;10.50;;
30462;SDS011;17256;43.618;25.336;2023-04-10T12:47:24;11.80;;;10.80;;
30462;SDS011;17256;43.618;25.336;2023-04-10T12:50:10;11.10;;;9.97;;
30462;SDS011;17256;43.618;25.336;2023-04-10T12:52:39;10.73;;;9.63;;
30462;SDS011;17256;43.618;25.336;2023-04-10T12:55:13;10.57;;;9.63;;
30462;SDS011;17256;43.618;25.336;2023-04-10T12:57:41;10.77;;;9.73;;
30462;SDS011;17256;43.618;25.336;2023-04-10T13:00:09;14.33;;;10.60;;
30462;SDS011;17256;43.618;25.336;2023-04-10T13:02:37;11.07;;;9.30;;
30462;SDS011;17256;43.618;25.336;2023-04-10T13:05:04;13.13;;;9.40;;
30462;SDS011;17256;43.618;25.336;2023-04-10T13:07:31;13.40;;;12.00;;
30462;SDS011;17256;43.618;25.336;2023-04-10T13:09:57;12.43;;;10.27;;
30462;SDS011;17256;43.618;25.336;2023-04-10T13:12:23;10.57;;;9.27;;
30462;SDS011;17256;43.618;25.336;2023-04-10T13:14:52;10.73;;;9.73;;
30462;SDS011;17256;43.618;25.336;2023-04-10T13:17:32;10.33;;;9.43;;
30462;SDS011;17256;43.618;25.336;2023-04-10T13:31:23;11.47;;;8.90;;
30462;SDS011;17256;43.618;25.336;2023-04-10T13:33:49;11.17;;;10.17;;
30462;SDS011;17256;43.618;25.336;2023-04-10T13:36:14;9.80;;;8.90;;
30462;SDS011;17256;43.618;25.336;2023-04-10T13:38:40;13.10;;;11.90;;
30462;SDS011;17256;43.618;25.336;2023-04-10T13:41:06;14.83;;;13.33;;
30462;SDS011;17256;43.618;25.336;2023-04-10T13:43:32;22.57;;;20.77;;
30462;SDS011;17256;43.618;25.336;2023-04-10T13:45:57;18.43;;;16.30;;
30462;SDS011;17256;43.618;25.336;2023-04-10T13:48:23;12.80;;;11.60;;
30462;SDS011;17256;43.618;25.336;2023-04-10T13:50:49;11.37;;;10.20;;
30462;SDS011;17256;43.618;25.336;2023-04-10T13:53:15;10.00;;;9.00;;
30462;SDS011;17256;43.618;25.336;2023-04-10T13:55:41;10.93;;;8.87;;
30462;SDS011;17256;43.618;25.336;2023-04-10T13:58:13;11.47;;;10.27;;
30462;SDS011;17256;43.618;25.336;2023-04-10T14:02:01;16.90;;;15.40;;
30462;SDS011;17256;43.618;25.336;2023-04-10T14:07:41;10.33;;;9.30;;
30462;SDS011;17256;43.618;25.336;2023-04-10T14:10:07;19.10;;;16.77;;
30462;SDS011;17256;43.618;25.336;2023-04-10T14:12:33;11.63;;;10.43;;
30462;SDS011;17256;43.618;25.336;2023-04-10T14:14:59;12.50;;;11.40;;
30462;SDS011;17256;43.618;25.336;2023-04-10T14:17:25;11.27;;;10.23;;
30462;SDS011;17256;43.618;25.336;2023-04-10T14:19:52;17.30;;;13.30;;
30462;SDS011;17256;43.618;25.336;2023-04-10T14:22:21;11.67;;;10.50;;
30462;SDS011;17256;43.618;25.336;2023-04-10T14:24:46;11.77;;;10.43;;
30462;SDS011;17256;43.618;25.336;2023-04-10T14:27:12;9.60;;;8.70;;
30462;SDS011;17256;43.618;25.336;2023-04-10T14:29:39;10.10;;;8.63;;
30462;SDS011;17256;43.618;25.336;2023-04-10T14:32:08;10.03;;;8.97;;
30462;SDS011;17256;43.618;25.336;2023-04-10T14:34:35;10.17;;;9.07;;
30462;SDS011;17256;43.618;25.336;2023-04-10T14:37:00;9.13;;;8.23;;
30462;SDS011;17256;43.618;25.336;2023-04-10T14:39:26;10.67;;;8.60;;
30462;SDS011;17256;43.618;25.336;2023-04-10T14:41:52;9.63;;;8.70;;
30462;SDS011;17256;43.618;25.336;2023-04-10T14:44:34;9.97;;;8.97;;
30462;SDS011;17256;43.618;25.336;2023-04-10T14:47:06;9.60;;;8.60;;
30462;SDS011;17256;43.618;25.336;2023-04-10T14:49:32;11.63;;;10.13;;
30462;SDS011;17256;43.618;25.336;2023-04-10T14:51:58;13.33;;;10.13;;
30462;SDS011;17256;43.618;25.336;2023-04-10T14:54:27;9.87;;;9.00;;
30462;SDS011;17256;43.618;25.336;2023-04-10T14:56:53;10.57;;;9.67;;
30462;SDS011;17256;43.618;25.336;2023-04-10T14:59:18;9.40;;;8.50;;
30462;SDS011;17256;43.618;25.336;2023-04-10T15:01:46;9.73;;;8.90;;
30462;SDS011;17256;43.618;25.336;2023-04-10T15:04:12;9.87;;;8.83;;
30462;SDS011;17256;43.618;25.336;2023-04-10T15:06:37;12.90;;;10.30;;
30462;SDS011;17256;43.618;25.336;2023-04-10T15:09:03;16.43;;;10.00;;
30462;SDS011;17256;43.618;25.336;2023-04-10T15:11:29;11.60;;;10.20;;
30462;SDS011;17256;43.618;25.336;2023-04-10T15:13:54;9.67;;;8.63;;
30462;SDS011;17256;43.618;25.336;2023-04-10T15:16:22;9.80;;;8.57;;
30462;SDS011;17256;43.618;25.336;2023-04-10T15:18:47;10.00;;;8.67;;
30462;SDS011;17256;43.618;25.336;2023-04-10T15:21:13;9.70;;;8.20;;
30462;SDS011;17256;43.618;25.336;2023-04-10T15:23:39;9.93;;;8.93;;
30462;SDS011;17256;43.618;25.336;2023-04-10T15:26:14;10.83;;;9.83;;
30462;SDS011;17256;43.618;25.336;2023-04-10T15:28:40;12.03;;;9.27;;
30462;SDS011;17256;43.618;25.336;2023-04-10T15:31:07;10.00;;;7.70;;
30462;SDS011;17256;43.618;25.336;2023-04-10T15:33:39;10.73;;;8.40;;
30462;SDS011;17256;43.618;25.336;2023-04-10T15:44:03;8.90;;;8.00;;
30462;SDS011;17256;43.618;25.336;2023-04-10T15:54:33;11.13;;;9.27;;
30462;SDS011;17256;43.618;25.336;2023-04-10T16:00:38;15.80;;;14.40;;
30462;SDS011;17256;43.618;25.336;2023-04-10T16:04:41;12.23;;;11.20;;
30462;SDS011;17256;43.618;25.336;2023-04-10T16:14:48;12.00;;;9.53;;
30462;SDS011;17256;43.618;25.336;2023-04-10T16:17:46;10.47;;;9.40;;
30462;SDS011;17256;43.618;25.336;2023-04-10T16:21:09;17.97;;;16.63;;
30462;SDS011;17256;43.618;25.336;2023-04-10T16:31:45;12.27;;;9.43;;
30462;SDS011;17256;43.618;25.336;2023-04-10T16:42:09;35.97;;;28.07;;
30462;SDS011;17256;43.618;25.336;2023-04-10T16:45:10;27.87;;;22.07;;
30462;SDS011;17256;43.618;25.336;2023-04-10T16:49:34;24.67;;;19.47;;
30462;SDS011;17256;43.618;25.336;2023-04-10T16:52:35;19.73;;;17.73;;
30462;SDS011;17256;43.618;25.336;2023-04-10T16:55:26;19.97;;;15.57;;
30462;SDS011;17256;43.618;25.336;2023-04-10T16:57:52;17.70;;;15.27;;
30462;SDS011;17256;43.618;25.336;2023-04-10T17:00:17;20.07;;;14.17;;
30462;SDS011;17256;43.618;25.336;2023-04-10T17:02:43;17.43;;;15.13;;
30462;SDS011;17256;43.618;25.336;2023-04-10T17:05:08;17.63;;;15.50;;
30462;SDS011;17256;43.618;25.336;2023-04-10T17:07:35;19.27;;;17.30;;
30462;SDS011;17256;43.618;25.336;2023-04-10T17:10:00;17.33;;;15.27;;
30462;SDS011;17256;43.618;25.336;2023-04-10T17:12:26;24.20;;;17.63;;
30462;SDS011;17256;43.618;25.336;2023-04-10T17:14:51;19.47;;;16.33;;
30462;SDS011;17256;43.618;25.336;2023-04-10T17:17:17;16.30;;;14.17;;
30462;SDS011;17256;43.618;25.336;2023-04-10T17:19:42;26.23;;;19.33;;
30462;SDS011;17256;43.618;25.336;2023-04-10T17:22:08;27.30;;;20.67;;
30462;SDS011;17256;43.618;25.336;2023-04-10T17:24:43;21.17;;;17.90;;
30462;SDS011;17256;43.618;25.336;2023-04-10T17:27:09;22.40;;;16.43;;
30462;SDS011;17256;43.618;25.336;2023-04-10T17:29:39;19.37;;;16.07;;
30462;SDS011;17256;43.618;25.336;2023-04-10T17:32:05;19.00;;;15.97;;
30462;SDS011;17256;43.618;25.336;2023-04-10T17:34:32;18.97;;;16.47;;
30462;SDS011;17256;43.618;25.336;2023-04-10T17:36:58;19.23;;;16.37;;
30462;SDS011;17256;43.618;25.336;2023-04-10T17:39:24;21.47;;;18.00;;
30462;SDS011;17256;43.618;25.336;2023-04-10T17:41:50;22.50;;;16.57;;
30462;SDS011;17256;43.618;25.336;2023-04-10T17:44:16;16.97;;;15.13;;
30462;SDS011;17256;43.618;25.336;2023-04-10T17:46:43;16.93;;;14.63;;
30462;SDS011;17256;43.618;25.336;2023-04-10T17:49:09;16.57;;;13.20;;
30462;SDS011;17256;43.618;25.336;2023-04-10T17:51:35;14.63;;;13.23;;
30462;SDS011;17256;43.618;25.336;2023-04-10T17:54:01;14.17;;;12.67;;
30462;SDS011;17256;43.618;25.336;2023-04-10T17:56:28;15.40;;;13.23;;
30462;SDS011;17256;43.618;25.336;2023-04-10T17:59:02;15.30;;;13.70;;
30462;SDS011;17256;43.618;25.336;2023-04-10T18:01:29;16.03;;;12.80;;
30462;SDS011;17256;43.618;25.336;2023-04-10T18:03:56;17.00;;;13.63;;
30462;SDS011;17256;43.618;25.336;2023-04-10T18:06:23;15.87;;;13.53;;
30462;SDS011;17256;43.618;25.336;2023-04-10T18:08:49;16.17;;;12.97;;
30462;SDS011;17256;43.618;25.336;2023-04-10T18:11:15;15.70;;;13.63;;
30462;SDS011;17256;43.618;25.336;2023-04-10T18:13:40;16.03;;;14.33;;
30462;SDS011;17256;43.618;25.336;2023-04-10T18:16:06;16.93;;;15.10;;
30462;SDS011;17256;43.618;25.336;2023-04-10T18:18:32;16.43;;;14.73;;
30462;SDS011;17256;43.618;25.336;2023-04-10T18:21:05;17.97;;;14.90;;
30462;SDS011;17256;43.618;25.336;2023-04-10T18:23:31;14.17;;;12.20;;
30462;SDS011;17256;43.618;25.336;2023-04-10T18:25:57;21.80;;;17.10;;
30462;SDS011;17256;43.618;25.336;2023-04-10T18:28:23;17.83;;;16.00;;
30462;SDS011;17256;43.618;25.336;2023-04-10T18:30:52;20.80;;;17.07;;
30462;SDS011;17256;43.618;25.336;2023-04-10T18:33:21;18.00;;;15.63;;
30462;SDS011;17256;43.618;25.336;2023-04-10T18:35:51;22.90;;;18.80;;
30462;SDS011;17256;43.618;25.336;2023-04-10T18:38:21;22.10;;;18.77;;
30462;SDS011;17256;43.618;25.336;2023-04-10T18:40:53;23.53;;;18.03;;
30462;SDS011;17256;43.618;25.336;2023-04-10T18:43:22;23.90;;;19.13;;
30462;SDS011;17256;43.618;25.336;2023-04-10T18:45:54;24.33;;;19.17;;
30462;SDS011;17256;43.618;25.336;2023-04-10T18:48:20;25.83;;;19.10;;
30462;SDS011;17256;43.618;25.336;2023-04-10T18:50:50;22.10;;;18.03;;
30462;SDS011;17256;43.618;25.336;2023-04-10T18:53:20;21.77;;;16.93;;
30462;SDS011;17256;43.618;25.336;2023-04-10T18:55:52;18.90;;;15.43;;
30462;SDS011;17256;43.618;25.336;2023-04-10T18:58:19;18.43;;;15.70;;
30462;SDS011;17256;43.618;25.336;2023-04-10T19:00:46;18.77;;;13.50;;
30462;SDS011;17256;43.618;25.336;2023-04-10T19:03:14;22.60;;;15.70;;
30462;SDS011;17256;43.618;25.336;2023-04-10T19:05:40;19.97;;;15.73;;
30462;SDS011;17256;43.618;25.336;2023-04-10T19:10:56;20.07;;;17.43;;
30462;SDS011;17256;43.618;25.336;2023-04-10T19:13:25;19.27;;;15.87;;
30462;SDS011;17256;43.618;25.336;2023-04-10T19:15:51;18.93;;;16.93;;
30462;SDS011;17256;43.618;25.336;2023-04-10T19:18:24;19.63;;;16.60;;
30462;SDS011;17256;43.618;25.336;2023-04-10T19:20:50;18.00;;;16.13;;
30462;SDS011;17256;43.618;25.336;2023-04-10T19:23:15;21.20;;;18.07;;
30462;SDS011;17256;43.618;25.336;2023-04-10T19:25:41;21.17;;;16.70;;
30462;SDS011;17256;43.618;25.336;2023-04-10T19:28:07;20.73;;;16.60;;
30462;SDS011;17256;43.618;25.336;2023-04-10T19:30:33;18.87;;;15.93;;
30462;SDS011;17256;43.618;25.336;2023-04-10T19:33:04;18.30;;;16.00;;
30462;SDS011;17256;43.618;25.336;2023-04-10T19:35:30;18.80;;;15.70;;
30462;SDS011;17256;43.618;25.336;2023-04-10T19:37:56;19.57;;;16.77;;
30462;SDS011;17256;43.618;25.336;2023-04-10T19:40:26;18.47;;;16.63;;
30462;SDS011;17256;43.618;25.336;2023-04-10T19:42:54;16.40;;;14.70;;
30462;SDS011;17256;43.618;25.336;2023-04-10T19:45:26;17.13;;;15.47;;
30462;SDS011;17256;43.618;25.336;2023-04-10T19:47:58;18.50;;;16.53;;
30462;SDS011;17256;43.618;25.336;2023-04-10T19:50:26;17.83;;;15.60;;
30462;SDS011;17256;43.618;25.336;2023-04-10T19:52:56;16.30;;;14.67;;
30462;SDS011;17256;43.618;25.336;2023-04-10T19:55:28;16.87;;;15.17;;
30462;SDS011;17256;43.618;25.336;2023-04-10T19:57:57;17.60;;;15.50;;
30462;SDS011;17256;43.618;25.336;2023-04-10T20:00:24;16.53;;;14.80;;
30462;SDS011;17256;43.618;25.336;2023-04-10T20:02:50;16.43;;;14.83;;
30462;SDS011;17256;43.618;25.336;2023-04-10T20:05:16;17.00;;;15.30;;
30462;SDS011;17256;43.618;25.336;2023-04-10T20:07:41;18.20;;;14.63;;
30462;SDS011;17256;43.618;25.336;2023-04-10T20:10:07;16.83;;;15.03;;
30462;SDS011;17256;43.618;25.336;2023-04-10T20:12:33;18.70;;;16.83;;
30462;SDS011;17256;43.618;25.336;2023-04-10T20:14:59;19.50;;;15.57;;
30462;SDS011;17256;43.618;25.336;2023-04-10T20:17:26;16.37;;;14.67;;
30462;SDS011;17256;43.618;25.336;2023-04-10T20:19:52;14.87;;;13.20;;